createdAt,value
2019-02-05T00:00:55.697Z,39.67
2019-02-05T00:03:25.266Z,39.07
2019-02-05T00:05:54.817Z,40.17
2019-02-05T00:08:25.851Z,40.53
2019-02-05T00:10:55.781Z,39.03
2019-02-05T00:13:25.338Z,40.43
2019-02-05T00:15:54.786Z,41.47
2019-02-05T00:18:24.227Z,41.47
2019-02-05T00:20:53.773Z,40.50
2019-02-05T00:23:23.213Z,41.70
2019-02-05T00:25:53.116Z,41.70
2019-02-05T00:28:22.698Z,42.80
2019-02-05T00:30:52.267Z,41.73
2019-02-05T00:33:21.769Z,40.87
2019-02-05T00:35:51.239Z,44.40
2019-02-05T00:38:20.759Z,45.07
2019-02-05T00:40:50.742Z,43.60
2019-02-05T00:43:20.514Z,45.57
2019-02-05T00:45:50.014Z,43.43
2019-02-05T00:48:19.520Z,43.50
2019-02-05T00:50:49.273Z,43.77
2019-02-05T00:53:18.857Z,44.63
2019-02-05T00:55:48.454Z,45.63
2019-02-05T00:58:17.848Z,45.03
2019-02-05T01:00:47.586Z,45.47
2019-02-05T01:03:17.298Z,46.93
2019-02-05T01:05:47.010Z,47.90
2019-02-05T01:08:16.562Z,48.63
2019-02-05T01:10:46.175Z,46.97
2019-02-05T01:13:15.724Z,48.07
2019-02-05T01:15:45.239Z,49.60
2019-02-05T01:18:14.857Z,47.70
2019-02-05T01:20:44.415Z,48.33
2019-02-05T01:23:14.267Z,51.37
2019-02-05T01:25:43.743Z,47.43
2019-02-05T01:28:13.474Z,46.10
2019-02-05T01:30:43.083Z,49.33
2019-02-05T01:33:12.642Z,48.80
2019-02-05T01:35:42.356Z,51.03
2019-02-05T01:38:12.106Z,49.53
2019-02-05T01:40:43.284Z,46.73
2019-02-05T01:43:12.765Z,48.90
2019-02-05T01:45:42.318Z,50.70
2019-02-05T01:48:11.857Z,49.87
2019-02-05T01:50:41.382Z,50.00
2019-02-05T01:53:11.266Z,50.77
2019-02-05T01:55:40.771Z,49.43
2019-02-05T01:58:10.489Z,52.17
2019-02-05T02:00:40.102Z,51.70
2019-02-05T02:03:09.748Z,52.40
2019-02-05T02:05:39.774Z,51.70
2019-02-05T02:08:09.535Z,51.93
2019-02-05T02:10:39.078Z,51.57
2019-02-05T02:13:08.713Z,52.13
2019-02-05T02:15:38.262Z,51.57
2019-02-05T02:18:07.819Z,49.67
2019-02-05T02:20:37.693Z,52.60
2019-02-05T02:23:07.871Z,53.77
2019-02-05T02:25:38.080Z,50.80
2019-02-05T02:28:08.164Z,50.43
2019-02-05T02:30:38.576Z,52.37
2019-02-05T02:33:08.381Z,52.27
2019-02-05T02:35:38.292Z,52.87
2019-02-05T02:38:07.956Z,51.60
2019-02-05T02:40:37.400Z,53.13
2019-02-05T02:43:07.525Z,51.73
2019-02-05T02:45:37.065Z,51.97
2019-02-05T02:48:06.615Z,54.07
2019-02-05T02:50:36.086Z,51.57
2019-02-05T02:53:05.630Z,50.30
2019-02-05T02:55:35.090Z,55.97
2019-02-05T02:58:04.715Z,54.30
2019-02-05T03:00:34.337Z,55.50
2019-02-05T03:03:04.107Z,55.97
2019-02-05T03:05:33.655Z,56.53
2019-02-05T03:08:03.188Z,56.47
2019-02-05T03:10:33.874Z,56.03
2019-02-05T03:13:03.347Z,56.87
2019-02-05T03:15:33.435Z,58.53
2019-02-05T03:18:03.120Z,55.33
2019-02-05T03:20:33.072Z,58.60
2019-02-05T03:23:02.531Z,55.93
2019-02-05T03:25:32.103Z,57.07
2019-02-05T03:28:01.540Z,59.00
2019-02-05T03:30:31.018Z,58.60
2019-02-05T03:33:00.620Z,62.57
2019-02-05T03:35:30.171Z,62.80
2019-02-05T03:38:00.032Z,58.33
2019-02-05T03:40:32.543Z,59.77
2019-02-05T03:43:02.214Z,57.33
2019-02-05T03:45:32.792Z,53.93
2019-02-05T03:48:03.825Z,55.23
2019-02-05T03:50:36.366Z,53.13
2019-02-05T03:53:15.079Z,53.90
2019-02-05T03:55:47.596Z,51.50
2019-02-05T03:58:20.152Z,53.27
2019-02-05T04:00:55.790Z,55.83
2019-02-05T04:03:34.498Z,52.33
2019-02-05T04:06:29.845Z,51.50
2019-02-05T04:09:08.044Z,50.80
2019-02-05T04:12:02.980Z,54.57
2019-02-05T04:14:41.629Z,52.30
2019-02-05T04:17:26.407Z,57.23
2019-02-05T04:20:17.134Z,61.60
2019-02-05T04:22:58.300Z,57.93
2019-02-05T04:25:45.533Z,52.43
2019-02-05T04:28:34.527Z,57.00
2019-02-05T04:31:15.971Z,57.80
2019-02-05T04:33:54.414Z,54.77
2019-02-05T04:36:39.144Z,52.87
2019-02-05T04:39:26.658Z,53.87
2019-02-05T04:42:25.975Z,53.73
2019-02-05T04:45:19.586Z,50.03
2019-02-05T04:48:24.162Z,51.30
2019-02-05T04:51:13.241Z,49.60
2019-02-05T04:53:48.770Z,48.97
2019-02-05T04:56:38.535Z,46.83
2019-02-05T04:59:25.813Z,50.40
2019-02-05T05:02:03.990Z,45.97
2019-02-05T05:04:48.615Z,45.07
2019-02-05T05:07:45.199Z,43.57
2019-02-05T05:10:14.927Z,43.97
2019-02-05T05:12:44.501Z,44.43
2019-02-05T05:15:14.524Z,44.37
2019-02-05T05:17:44.041Z,42.73
2019-02-05T05:20:13.658Z,43.87
2019-02-05T05:22:43.848Z,41.87
2019-02-05T05:25:13.542Z,40.67
2019-02-05T05:27:43.426Z,41.10
2019-02-05T05:30:15.751Z,39.80
2019-02-05T05:32:45.479Z,40.23
2019-02-05T05:35:15.401Z,41.33
2019-02-05T05:37:44.868Z,42.37
2019-02-05T05:40:14.501Z,39.83
2019-02-05T05:42:43.943Z,40.27
2019-02-05T05:45:14.559Z,38.90
2019-02-05T05:47:44.072Z,39.27
2019-02-05T05:50:15.209Z,41.40
2019-02-05T05:52:44.813Z,38.90
2019-02-05T05:55:14.387Z,41.70
2019-02-05T05:57:45.937Z,40.83
2019-02-05T06:00:18.675Z,40.43
2019-02-05T06:02:48.233Z,40.17
2019-02-05T06:05:19.427Z,38.97
2019-02-05T06:07:49.129Z,38.60
2019-02-05T06:10:20.076Z,40.43
2019-02-05T06:12:49.895Z,41.43
2019-02-05T06:15:19.426Z,42.17
2019-02-05T06:17:49.067Z,38.83
2019-02-05T06:20:19.503Z,42.50
2019-02-05T06:22:49.185Z,41.83
2019-02-05T06:25:18.764Z,44.37
2019-02-05T06:27:50.022Z,43.60
2019-02-05T06:30:19.773Z,43.60
2019-02-05T06:32:49.564Z,44.20
2019-02-05T06:35:19.117Z,42.57
2019-02-05T06:37:48.587Z,40.53
2019-02-05T06:40:22.154Z,38.93
2019-02-05T06:42:51.755Z,39.50
2019-02-05T06:45:21.484Z,40.03
2019-02-05T06:47:50.953Z,42.30
2019-02-05T06:50:20.508Z,40.53
2019-02-05T06:52:50.123Z,42.63
2019-02-05T06:55:19.668Z,41.13
2019-02-05T06:57:49.108Z,38.40
2019-02-05T07:00:23.333Z,41.33
2019-02-05T07:02:53.335Z,38.60
2019-02-05T07:05:23.079Z,40.80
2019-02-05T07:07:53.020Z,36.93
2019-02-05T07:10:24.859Z,40.73
2019-02-05T07:12:56.391Z,41.03
2019-02-05T07:15:25.740Z,42.03
2019-02-05T07:17:55.237Z,43.27
2019-02-05T07:20:24.826Z,45.50
2019-02-05T07:22:55.740Z,43.57
2019-02-05T07:25:25.536Z,43.80
2019-02-05T07:27:55.082Z,40.10
2019-02-05T07:30:26.434Z,40.03
2019-02-05T07:32:56.235Z,43.33
2019-02-05T07:35:25.800Z,39.00
2019-02-05T07:37:55.889Z,40.67
2019-02-05T07:40:25.551Z,48.93
2019-02-05T07:42:55.060Z,43.43
2019-02-05T07:45:24.688Z,46.13
2019-02-05T07:47:54.190Z,44.20
2019-02-05T07:50:26.356Z,44.07
2019-02-05T07:52:55.997Z,41.30
2019-02-05T07:55:26.000Z,41.10
2019-02-05T07:57:55.578Z,39.43
2019-02-05T08:00:31.750Z,40.47
2019-02-05T08:03:01.324Z,31.73
2019-02-05T08:05:33.141Z,38.40
2019-02-05T08:08:03.735Z,33.77
2019-02-05T08:10:33.573Z,35.07
2019-02-05T08:13:03.215Z,35.93
2019-02-05T08:15:34.480Z,35.60
2019-02-05T08:18:04.729Z,36.50
2019-02-05T08:20:34.189Z,36.13
2019-02-05T08:23:03.884Z,37.80
2019-02-05T08:25:33.428Z,37.07
2019-02-05T08:28:03.490Z,36.77
2019-02-05T08:30:35.968Z,35.47
2019-02-05T08:33:05.641Z,37.83
2019-02-05T08:35:35.176Z,39.43
2019-02-05T08:38:04.926Z,36.43
2019-02-05T08:40:35.940Z,36.50
2019-02-05T08:43:06.288Z,40.50
2019-02-05T08:45:38.072Z,37.73
2019-02-05T08:48:10.012Z,39.07
2019-02-05T08:50:39.815Z,43.30
2019-02-05T08:53:09.381Z,44.37
2019-02-05T08:55:38.984Z,44.33
2019-02-05T08:58:13.825Z,45.67
2019-02-05T09:00:43.878Z,43.93
2019-02-05T09:03:13.489Z,44.73
2019-02-05T09:05:43.181Z,46.30
2019-02-05T09:08:12.856Z,47.93
2019-02-05T09:10:43.217Z,49.73
2019-02-05T09:13:13.640Z,45.40
2019-02-05T09:15:43.196Z,45.37
2019-02-05T09:18:12.805Z,41.93
2019-02-05T09:20:42.362Z,40.57
2019-02-05T09:23:14.281Z,42.40
2019-02-05T09:25:43.142Z,42.87
2019-02-05T09:28:15.850Z,37.90
2019-02-05T09:30:45.497Z,36.07
2019-02-05T09:33:15.984Z,36.77
2019-02-05T09:35:45.590Z,34.63
2019-02-05T09:38:15.243Z,33.63
2019-02-05T09:40:44.917Z,30.17
2019-02-05T09:43:14.939Z,32.30
2019-02-05T09:45:44.493Z,32.13
2019-02-05T09:48:14.150Z,30.17
2019-02-05T09:50:45.011Z,29.97
2019-02-05T09:53:14.980Z,29.07
2019-02-05T09:55:44.548Z,30.20
2019-02-05T09:58:14.131Z,28.77
2019-02-05T10:00:43.887Z,30.10
2019-02-05T10:03:13.492Z,29.80
2019-02-05T10:05:43.212Z,29.27
2019-02-05T10:08:12.800Z,28.50
2019-02-05T10:10:42.574Z,26.73
2019-02-05T10:13:12.218Z,24.63
2019-02-05T10:15:43.473Z,25.90
2019-02-05T10:18:13.815Z,27.23
2019-02-05T10:20:44.909Z,28.23
2019-02-05T10:23:14.547Z,26.90
2019-02-05T10:25:44.130Z,27.63
2019-02-05T10:28:13.696Z,28.43
2019-02-05T10:30:44.885Z,28.97
2019-02-05T10:33:14.564Z,35.07
2019-02-05T10:35:44.308Z,35.07
2019-02-05T10:38:13.964Z,34.70
2019-02-05T10:40:43.612Z,36.30
2019-02-05T10:43:13.253Z,34.70
2019-02-05T10:45:42.827Z,33.10
2019-02-05T10:48:12.407Z,30.40
2019-02-05T10:50:42.080Z,29.40
2019-02-05T10:53:11.660Z,28.93
2019-02-05T10:55:41.228Z,29.80
2019-02-05T10:58:10.805Z,26.90
2019-02-05T11:00:40.441Z,29.20
2019-02-05T11:03:10.256Z,30.03
2019-02-05T11:05:40.409Z,29.53
2019-02-05T11:08:10.050Z,29.13
2019-02-05T11:10:39.620Z,31.70
2019-02-05T11:13:09.245Z,32.50
2019-02-05T11:15:38.975Z,30.63
2019-02-05T11:18:09.946Z,31.37
2019-02-05T11:20:40.546Z,33.10
2019-02-05T11:23:10.150Z,34.23
2019-02-05T11:25:39.894Z,33.03
2019-02-05T11:28:09.494Z,30.33
2019-02-05T11:30:45.756Z,32.00
2019-02-05T11:33:15.641Z,30.17
2019-02-05T11:35:45.360Z,34.37
2019-02-05T11:38:15.143Z,32.00
2019-02-05T11:40:44.981Z,29.43
2019-02-05T11:43:15.449Z,30.93
2019-02-05T11:45:45.125Z,31.37
2019-02-05T11:48:16.868Z,31.83
2019-02-05T11:50:46.530Z,33.37
2019-02-05T11:53:16.154Z,30.77
2019-02-05T11:55:45.823Z,31.50
2019-02-05T11:58:15.372Z,33.20
2019-02-05T12:00:46.610Z,30.83
2019-02-05T12:03:16.525Z,31.77
2019-02-05T12:05:46.034Z,30.63
2019-02-05T12:08:18.573Z,30.90
2019-02-05T12:10:47.837Z,31.60
2019-02-05T12:13:17.429Z,31.30
2019-02-05T12:15:47.008Z,32.43
2019-02-05T12:18:16.639Z,31.73
2019-02-05T12:20:46.442Z,32.77
2019-02-05T12:23:16.045Z,33.07
2019-02-05T12:25:45.662Z,30.63
2019-02-05T12:28:15.127Z,29.63
2019-02-05T12:30:46.459Z,31.00
2019-02-05T12:33:16.074Z,28.97
2019-02-05T12:35:47.601Z,28.67
2019-02-05T12:38:17.204Z,28.90
2019-02-05T12:40:46.786Z,26.13
2019-02-05T12:43:16.322Z,27.30
2019-02-05T12:45:46.055Z,25.90
2019-02-05T12:48:15.641Z,25.27
2019-02-05T12:50:45.579Z,22.47
2019-02-05T12:53:15.052Z,22.87
2019-02-05T12:55:44.605Z,21.03
2019-02-05T12:58:14.145Z,21.00
2019-02-05T13:00:56.608Z,21.13
2019-02-05T13:03:17.523Z,20.37
2019-02-05T13:05:48.930Z,20.50
2019-02-05T13:08:18.526Z,19.57
2019-02-05T13:10:50.441Z,23.07
2019-02-05T13:13:20.164Z,21.30
2019-02-05T13:15:49.729Z,19.43
2019-02-05T13:18:19.723Z,17.87
2019-02-05T13:20:49.380Z,15.97
2019-02-05T13:23:18.901Z,15.90
2019-02-05T13:25:49.066Z,15.47
2019-02-05T13:28:20.132Z,15.70
2019-02-05T13:30:49.708Z,15.93
2019-02-05T13:33:19.617Z,18.70
2019-02-05T13:35:49.184Z,18.47
2019-02-05T13:38:18.713Z,18.53
2019-02-05T13:40:48.407Z,20.90
2019-02-05T13:43:18.004Z,20.70
2019-02-05T13:45:47.750Z,21.20
2019-02-05T13:48:17.417Z,21.00
2019-02-05T13:50:47.118Z,20.60
2019-02-05T13:53:16.882Z,21.10
2019-02-05T13:55:46.810Z,21.93
2019-02-05T13:58:16.940Z,20.27
2019-02-05T14:00:51.843Z,21.80
2019-02-05T14:03:21.626Z,23.80
2019-02-05T14:05:51.109Z,24.47
2019-02-05T14:08:20.925Z,26.07
2019-02-05T14:10:50.550Z,27.17
2019-02-05T14:13:20.091Z,25.30
2019-02-05T14:15:51.571Z,23.90
2019-02-05T14:18:22.864Z,23.80
2019-02-05T14:20:52.743Z,24.47
2019-02-05T14:23:22.344Z,23.30
2019-02-05T14:25:51.838Z,25.47
2019-02-05T14:28:21.452Z,24.80
2019-02-05T14:30:52.904Z,25.57
2019-02-05T14:33:22.808Z,25.27
2019-02-05T14:35:52.316Z,26.80
2019-02-05T14:38:22.116Z,26.60
2019-02-05T14:40:51.763Z,26.77
2019-02-05T14:43:21.439Z,26.97
2019-02-05T14:45:50.934Z,26.47
2019-02-05T14:48:20.893Z,26.00
2019-02-05T14:50:50.530Z,26.13
2019-02-05T14:53:20.059Z,27.67
2019-02-05T14:55:49.618Z,27.50
2019-02-05T14:58:19.687Z,27.30
2019-02-05T15:00:49.461Z,27.07
2019-02-05T15:03:18.936Z,26.43
2019-02-05T15:05:48.441Z,27.17
2019-02-05T15:08:18.163Z,27.00
2019-02-05T15:10:47.874Z,27.53
2019-02-05T15:13:19.002Z,25.30
2019-02-05T15:15:48.584Z,25.23
2019-02-05T15:18:18.289Z,26.23
2019-02-05T15:20:48.616Z,26.37
2019-02-05T15:23:18.504Z,25.83
2019-02-05T15:25:48.136Z,26.27
2019-02-05T15:28:17.743Z,26.50
2019-02-05T15:30:47.633Z,26.87
2019-02-05T15:33:28.404Z,27.33
2019-02-05T15:36:05.420Z,26.90
2019-02-05T15:38:35.055Z,26.77
2019-02-05T15:41:04.730Z,27.80
2019-02-05T15:43:36.005Z,27.47
2019-02-05T15:46:05.792Z,26.77
2019-02-05T15:48:35.489Z,26.30
2019-02-05T15:51:05.560Z,25.77
2019-02-05T15:53:35.148Z,25.80
2019-02-05T15:56:05.184Z,26.60
2019-02-05T15:58:34.685Z,26.77
2019-02-05T16:01:04.647Z,25.47
2019-02-05T16:03:34.195Z,27.40
2019-02-05T16:06:04.244Z,25.67
2019-02-05T16:08:33.738Z,26.67
2019-02-05T16:11:05.498Z,27.07
2019-02-05T16:13:35.125Z,26.83
2019-02-05T16:16:05.203Z,26.20
2019-02-05T16:18:34.869Z,25.67
2019-02-05T16:21:04.884Z,25.50
2019-02-05T16:23:34.534Z,25.80
2019-02-05T16:26:04.577Z,26.67
2019-02-05T16:28:35.728Z,28.97
2019-02-05T16:31:05.339Z,29.47
2019-02-05T16:33:34.932Z,29.60
2019-02-05T16:36:04.737Z,30.20
2019-02-05T16:38:34.511Z,30.80
2019-02-05T16:41:04.245Z,30.23
2019-02-05T16:43:33.764Z,30.77
2019-02-05T16:46:03.310Z,31.77
2019-02-05T16:48:33.557Z,31.20
2019-02-05T16:51:03.559Z,33.23
2019-02-05T16:53:33.128Z,33.50
2019-02-05T16:56:02.682Z,33.33
2019-02-05T16:58:32.329Z,32.87
2019-02-05T17:01:01.847Z,34.50
2019-02-05T17:03:31.397Z,35.10
2019-02-05T17:06:01.362Z,35.70
2019-02-05T17:08:30.948Z,34.30
2019-02-05T17:11:00.465Z,35.03
2019-02-05T17:13:29.985Z,36.60
2019-02-05T17:15:59.544Z,36.83
2019-02-05T17:18:29.339Z,36.30
2019-02-05T17:20:58.998Z,36.20
2019-02-05T17:23:28.667Z,38.47
2019-02-05T17:25:58.249Z,37.70
2019-02-05T17:28:27.745Z,36.60
2019-02-05T17:30:57.346Z,36.80
2019-02-05T17:33:27.324Z,37.70
2019-02-05T17:35:56.825Z,38.63
2019-02-05T17:38:26.335Z,41.33
2019-02-05T17:40:55.967Z,38.83
2019-02-05T17:43:25.471Z,39.50
2019-02-05T17:45:54.932Z,37.10
2019-02-05T17:48:24.832Z,36.87
2019-02-05T17:50:54.341Z,37.80
2019-02-05T17:53:23.943Z,38.40
2019-02-05T17:55:53.480Z,38.50
2019-02-05T17:58:23.132Z,38.63
2019-02-05T18:00:54.534Z,41.10
2019-02-05T18:03:24.297Z,41.43
2019-02-05T18:05:54.493Z,40.97
2019-02-05T18:08:24.010Z,41.17
2019-02-05T18:10:53.612Z,41.40
2019-02-05T18:13:23.468Z,38.50
2019-02-05T18:15:52.914Z,39.77
2019-02-05T18:18:22.562Z,40.70
2019-02-05T18:20:52.088Z,40.83
2019-02-05T18:23:21.584Z,41.43
2019-02-05T18:25:51.256Z,43.03
2019-02-05T18:28:20.831Z,41.63
2019-02-05T18:30:50.438Z,44.23
2019-02-05T18:33:20.131Z,42.83
2019-02-05T18:35:49.725Z,42.17
2019-02-05T18:38:19.627Z,42.03
2019-02-05T18:40:49.166Z,42.33
2019-02-05T18:43:18.803Z,41.73
2019-02-05T18:45:48.539Z,43.57
2019-02-05T18:48:17.999Z,43.60
2019-02-05T18:50:47.697Z,41.10
2019-02-05T18:53:18.757Z,42.00
2019-02-05T18:55:48.627Z,40.17
2019-02-05T18:58:18.229Z,40.30
2019-02-05T19:00:49.653Z,38.73
2019-02-05T19:03:19.192Z,40.73
2019-02-05T19:05:50.342Z,42.07
2019-02-05T19:08:19.993Z,41.53
2019-02-05T19:10:50.254Z,41.30
2019-02-05T19:13:19.965Z,41.50
2019-02-05T19:15:49.909Z,41.50
2019-02-05T19:18:19.389Z,39.83
2019-02-05T19:20:48.953Z,40.07
2019-02-05T19:23:18.425Z,38.40
2019-02-05T19:25:55.639Z,39.83
2019-02-05T19:28:27.182Z,39.57
2019-02-05T19:30:58.403Z,39.90
2019-02-05T19:33:27.946Z,38.57
2019-02-05T19:35:57.625Z,39.00
2019-02-05T19:38:27.106Z,40.57
2019-02-05T19:40:57.969Z,38.17
2019-02-05T19:43:27.478Z,38.27
2019-02-05T19:45:58.731Z,39.80
2019-02-05T19:48:32.962Z,38.63
2019-02-05T19:51:03.059Z,39.97
2019-02-05T19:53:32.524Z,38.93
2019-02-05T19:56:02.327Z,40.47
2019-02-05T19:58:32.139Z,40.17
2019-02-05T20:01:01.790Z,40.93
2019-02-05T20:03:38.472Z,37.83
2019-02-05T20:06:02.465Z,39.97
2019-02-05T20:08:32.082Z,39.67
2019-02-05T20:11:01.738Z,40.97
2019-02-05T20:13:40.054Z,40.47
2019-02-05T20:16:02.474Z,39.17
2019-02-05T20:18:31.936Z,38.70
2019-02-05T20:21:01.506Z,38.40
2019-02-05T20:23:30.980Z,36.30
2019-02-05T20:26:00.483Z,38.70
2019-02-05T20:28:29.981Z,36.03
2019-02-05T20:30:59.773Z,35.20
2019-02-05T20:33:30.834Z,34.93
2019-02-05T20:36:00.342Z,33.37
2019-02-05T20:38:29.860Z,33.40
2019-02-05T20:40:59.377Z,34.27
2019-02-05T20:43:28.934Z,34.73
2019-02-05T20:45:58.937Z,33.30
2019-02-05T20:48:29.828Z,33.37
2019-02-05T20:51:01.225Z,33.97
2019-02-05T20:53:32.394Z,33.13
2019-02-05T20:56:02.086Z,34.03
2019-02-05T20:58:31.629Z,33.20
2019-02-05T21:01:01.587Z,33.67
2019-02-05T21:03:31.202Z,31.37
2019-02-05T21:06:00.628Z,31.93
2019-02-05T21:08:30.161Z,33.03
2019-02-05T21:10:59.698Z,33.83
2019-02-05T21:13:29.268Z,33.77
2019-02-05T21:15:58.799Z,31.53
2019-02-05T21:18:29.356Z,32.37
2019-02-05T21:20:58.893Z,33.23
2019-02-05T21:23:28.480Z,32.90
2019-02-05T21:25:58.173Z,32.70
2019-02-05T21:28:27.759Z,36.03
2019-02-05T21:30:57.301Z,34.33
2019-02-05T21:33:27.124Z,37.20
2019-02-05T21:35:56.734Z,32.87
2019-02-05T21:38:26.249Z,35.70
2019-02-05T21:40:55.810Z,34.83
2019-02-05T21:43:26.876Z,34.57
2019-02-05T21:45:56.407Z,36.80
2019-02-05T21:48:26.112Z,37.73
2019-02-05T21:50:55.734Z,36.03
2019-02-05T21:53:25.307Z,37.33
2019-02-05T21:55:54.845Z,36.00
2019-02-05T21:58:24.497Z,36.87
2019-02-05T22:00:53.969Z,37.63
2019-02-05T22:03:24.133Z,37.90
2019-02-05T22:05:53.666Z,36.43
2019-02-05T22:08:23.163Z,37.00
2019-02-05T22:10:52.726Z,36.43
2019-02-05T22:13:22.210Z,38.17
2019-02-05T22:15:51.942Z,37.63
2019-02-05T22:18:21.414Z,37.63
2019-02-05T22:20:51.062Z,38.07
2019-02-05T22:23:21.074Z,39.47
2019-02-05T22:25:50.717Z,38.60
2019-02-05T22:28:20.679Z,38.13
2019-02-05T22:30:50.631Z,37.67
2019-02-05T22:33:20.258Z,37.90
2019-02-05T22:35:49.878Z,37.37
2019-02-05T22:38:20.929Z,38.27
2019-02-05T22:40:50.466Z,37.47
2019-02-05T22:43:21.686Z,38.17
2019-02-05T22:45:51.253Z,38.70
2019-02-05T22:48:20.718Z,37.13
2019-02-05T22:50:50.258Z,37.43
2019-02-05T22:53:19.888Z,39.23
2019-02-05T22:55:49.421Z,37.60
2019-02-05T22:58:19.384Z,37.23
2019-02-05T23:00:58.570Z,40.87
2019-02-05T23:03:40.198Z,38.47
2019-02-05T23:06:41.925Z,39.13
2019-02-05T23:09:25.433Z,41.53
2019-02-05T23:12:06.705Z,39.00
2019-02-05T23:14:36.355Z,38.80
2019-02-05T23:17:06.262Z,39.97
2019-02-05T23:19:35.987Z,38.63
2019-02-05T23:22:05.552Z,39.57
2019-02-05T23:24:36.769Z,39.13
2019-02-05T23:27:06.274Z,37.60
2019-02-05T23:29:35.846Z,37.50
2019-02-05T23:32:05.623Z,39.53
2019-02-05T23:34:35.180Z,38.10
2019-02-05T23:37:04.769Z,39.10
2019-02-05T23:39:34.241Z,36.93
2019-02-05T23:42:03.808Z,38.07
2019-02-05T23:44:33.379Z,37.30
2019-02-05T23:47:02.868Z,36.87
2019-02-05T23:49:32.307Z,36.90
2019-02-05T23:52:01.804Z,37.33
2019-02-05T23:54:32.824Z,36.53
2019-02-05T23:57:02.410Z,36.40
2019-02-05T23:59:31.921Z,36.47
